createdAt,value
2019-05-05T00:00:41.343Z,100604.34
2019-05-05T00:03:21.882Z,100595.67
2019-05-05T00:05:54.636Z,100599.95
2019-05-05T00:08:24.554Z,100605.19
2019-05-05T00:11:07.552Z,100610.32
2019-05-05T00:13:47.506Z,100611.14
2019-05-05T00:16:18.665Z,100614.60
2019-05-05T00:18:48.183Z,100617.52
2019-05-05T00:21:17.628Z,100613.40
2019-05-05T00:23:47.120Z,100611.13
2019-05-05T00:26:16.828Z,100613.70
2019-05-05T00:28:46.485Z,100615.30
2019-05-05T00:31:15.990Z,100613.89
2019-05-05T00:33:45.704Z,100612.03
2019-05-05T00:36:15.583Z,100617.16
2019-05-05T00:38:48.789Z,100617.16
2019-05-05T00:41:18.310Z,100621.27
2019-05-05T00:43:47.787Z,100618.05
2019-05-05T00:46:35.290Z,100620.60
2019-05-05T00:49:05.401Z,100625.34
2019-05-05T00:51:35.953Z,100628.75
2019-05-05T00:54:05.400Z,100629.84
2019-05-05T00:56:34.882Z,100632.35
2019-05-05T00:59:14.881Z,100632.55
2019-05-05T01:02:04.755Z,100632.99
2019-05-05T01:04:44.728Z,100633.28
2019-05-05T01:07:14.847Z,100637.00
2019-05-05T01:09:45.248Z,100638.75
2019-05-05T01:12:16.062Z,100639.09
2019-05-05T01:14:45.573Z,100638.31
2019-05-05T01:17:15.315Z,100639.67
2019-05-05T01:19:59.530Z,100645.80
2019-05-05T01:22:17.106Z,100647.46
2019-05-05T01:24:46.597Z,100649.96
2019-05-05T01:27:16.790Z,100655.94
2019-05-05T01:29:46.238Z,100653.67
2019-05-05T01:32:24.687Z,100656.73
2019-05-05T01:34:55.382Z,100663.61
2019-05-05T01:37:26.499Z,100661.69
2019-05-05T01:39:58.632Z,100664.30
2019-05-05T01:42:28.172Z,100668.16
2019-05-05T01:44:58.067Z,100668.11
2019-05-05T01:47:27.633Z,100672.38
2019-05-05T01:49:57.071Z,100673.19
2019-05-05T01:52:26.559Z,100678.84
2019-05-05T01:54:56.008Z,100677.39
2019-05-05T01:57:26.305Z,100684.21
2019-05-05T01:59:56.545Z,100681.81
2019-05-05T02:02:26.375Z,100681.35
2019-05-05T02:04:55.861Z,100684.31
2019-05-05T02:07:25.392Z,100683.28
2019-05-05T02:09:55.496Z,100683.19
2019-05-05T02:12:25.116Z,100684.03
2019-05-05T02:14:55.253Z,100682.04
2019-05-05T02:17:25.890Z,100678.34
2019-05-05T02:19:55.766Z,100686.05
2019-05-05T02:22:25.455Z,100688.57
2019-05-05T02:24:55.310Z,100685.03
2019-05-05T02:27:25.295Z,100694.98
2019-05-05T02:30:16.158Z,100695.32
2019-05-05T02:32:48.827Z,100699.52
2019-05-05T02:35:18.310Z,100689.91
2019-05-05T02:37:48.571Z,100696.72
2019-05-05T02:40:20.364Z,100699.16
2019-05-05T02:42:50.649Z,100701.31
2019-05-05T02:45:25.121Z,100700.81
2019-05-05T02:48:05.955Z,100696.83
2019-05-05T02:51:00.162Z,100697.51
2019-05-05T02:53:26.482Z,100702.61
2019-05-05T02:55:59.689Z,100703.51
2019-05-05T02:58:30.774Z,100701.30
2019-05-05T03:01:19.258Z,100702.94
2019-05-05T03:03:49.442Z,100703.38
2019-05-05T03:06:19.052Z,100707.30
2019-05-05T03:08:51.252Z,100708.03
2019-05-05T03:11:21.158Z,100711.55
2019-05-05T03:13:53.572Z,100717.74
2019-05-05T03:16:25.759Z,100716.44
2019-05-05T03:18:55.876Z,100728.66
2019-05-05T03:21:25.953Z,100732.11
2019-05-05T03:23:56.176Z,100733.41
2019-05-05T03:26:26.005Z,100734.22
2019-05-05T03:29:04.773Z,100739.57
2019-05-05T03:31:35.351Z,100737.33
2019-05-05T03:34:06.366Z,100733.81
2019-05-05T03:36:36.578Z,100744.66
2019-05-05T03:39:07.294Z,100747.27
2019-05-05T03:41:44.229Z,100746.30
2019-05-05T03:44:27.738Z,100752.44
2019-05-05T03:46:57.752Z,100757.99
2019-05-05T03:49:28.029Z,100757.99
2019-05-05T03:51:57.846Z,100758.06
2019-05-05T03:54:27.676Z,100764.59
2019-05-05T03:57:09.522Z,100760.84
2019-05-05T03:59:41.768Z,100762.14
2019-05-05T04:02:15.709Z,100763.45
2019-05-05T04:04:46.855Z,100763.45
2019-05-05T04:07:16.596Z,100773.13
2019-05-05T04:09:46.958Z,100772.45
2019-05-05T04:12:17.233Z,100771.34
2019-05-05T04:14:46.762Z,100778.10
2019-05-05T04:17:22.025Z,100775.22
2019-05-05T04:19:56.138Z,100782.04
2019-05-05T04:22:27.087Z,100781.05
2019-05-05T04:24:56.853Z,100787.94
2019-05-05T04:27:26.302Z,100786.99
2019-05-05T04:29:55.794Z,100793.88
2019-05-05T04:32:25.244Z,100796.91
2019-05-05T04:34:54.794Z,100799.42
2019-05-05T04:37:24.302Z,100795.32
2019-05-05T04:39:53.934Z,100801.23
2019-05-05T04:42:24.556Z,100798.12
2019-05-05T04:44:54.230Z,100809.27
2019-05-05T04:47:31.750Z,100814.05
2019-05-05T04:50:06.192Z,100817.67
2019-05-05T04:52:35.709Z,100818.64
2019-05-05T04:55:07.339Z,100818.33
2019-05-05T04:57:36.786Z,100821.83
2019-05-05T05:00:06.815Z,100828.60
2019-05-05T05:02:56.027Z,100834.16
2019-05-05T05:05:33.733Z,100828.28
2019-05-05T05:08:03.900Z,100832.03
2019-05-05T05:10:34.626Z,100840.20
2019-05-05T05:13:04.760Z,100829.07
2019-05-05T05:15:34.590Z,100835.47
2019-05-05T05:18:14.913Z,100831.11
2019-05-05T05:20:46.197Z,100833.19
2019-05-05T05:23:15.681Z,100832.77
2019-05-05T05:25:45.124Z,100835.12
2019-05-05T05:28:15.692Z,100828.03
2019-05-05T05:30:45.138Z,100832.99
2019-05-05T05:33:14.983Z,100837.88
2019-05-05T05:35:44.622Z,100844.36
2019-05-05T05:38:14.257Z,100843.45
2019-05-05T05:40:53.561Z,100847.40
2019-05-05T05:43:25.350Z,100841.19
2019-05-05T05:46:05.309Z,100849.02
2019-05-05T05:48:45.782Z,100848.86
2019-05-05T05:51:19.403Z,100851.86
2019-05-05T05:53:48.441Z,100853.49
2019-05-05T05:56:18.109Z,100852.31
2019-05-05T05:58:47.781Z,100852.31
2019-05-05T06:01:17.232Z,100849.48
2019-05-05T06:03:46.711Z,100859.27
2019-05-05T06:06:16.497Z,100862.00
2019-05-05T06:08:46.009Z,100857.17
2019-05-05T06:11:15.490Z,100868.41
2019-05-05T06:13:47.577Z,100871.72
2019-05-05T06:16:16.787Z,100882.53
2019-05-05T06:18:46.610Z,100872.28
2019-05-05T06:21:16.103Z,100874.72
2019-05-05T06:23:45.595Z,100878.53
2019-05-05T06:26:15.403Z,100880.38
2019-05-05T06:28:44.959Z,100877.02
2019-05-05T06:31:15.053Z,100880.15
2019-05-05T06:33:44.616Z,100882.53
2019-05-05T06:36:15.669Z,100877.45
2019-05-05T06:38:45.187Z,100878.03
2019-05-05T06:41:23.628Z,100879.35
2019-05-05T06:43:54.826Z,100884.91
2019-05-05T06:46:25.968Z,100887.58
2019-05-05T06:48:55.438Z,100895.67
2019-05-05T06:51:24.931Z,100899.28
2019-05-05T06:53:54.720Z,100897.23
2019-05-05T06:56:24.201Z,100904.92
2019-05-05T06:58:54.117Z,100906.34
2019-05-05T07:01:24.789Z,100903.39
2019-05-05T07:03:55.392Z,100900.12
2019-05-05T07:06:24.930Z,100906.71
2019-05-05T07:08:54.677Z,100910.33
2019-05-05T07:11:25.710Z,100913.45
2019-05-05T07:13:55.584Z,100909.20
2019-05-05T07:16:25.405Z,100916.39
2019-05-05T07:18:54.854Z,100918.92
2019-05-05T07:21:25.953Z,100924.45
2019-05-05T07:23:55.431Z,100925.81
2019-05-05T07:26:24.908Z,100917.23
2019-05-05T07:28:54.412Z,100915.35
2019-05-05T07:31:24.071Z,100907.25
2019-05-05T07:33:54.485Z,100908.95
2019-05-05T07:36:44.463Z,100912.27
2019-05-05T07:39:14.348Z,100908.66
2019-05-05T07:41:44.707Z,100913.62
2019-05-05T07:44:25.764Z,100909.59
2019-05-05T07:46:45.497Z,100912.88
2019-05-05T07:49:15.008Z,100922.22
2019-05-05T07:51:44.962Z,100912.54
2019-05-05T07:54:14.712Z,100917.70
2019-05-05T07:56:44.578Z,100911.72
2019-05-05T07:59:14.757Z,100914.34
2019-05-05T08:01:46.671Z,100922.15
2019-05-05T08:04:18.380Z,100920.12
2019-05-05T08:06:48.696Z,100918.47
2019-05-05T08:09:18.137Z,100917.09
2019-05-05T08:11:47.928Z,100919.34
2019-05-05T08:14:17.370Z,100915.29
2019-05-05T08:16:53.478Z,100918.13
2019-05-05T08:19:36.545Z,100918.36
2019-05-05T08:22:07.026Z,100915.53
2019-05-05T08:24:59.251Z,100912.20
2019-05-05T08:27:33.984Z,100917.75
2019-05-05T08:30:09.081Z,100917.80
2019-05-05T08:32:39.847Z,100909.61
2019-05-05T08:35:09.470Z,100918.43
2019-05-05T08:37:39.097Z,100916.73
2019-05-05T08:40:09.226Z,100912.70
2019-05-05T08:42:39.047Z,100920.26
2019-05-05T08:45:08.841Z,100914.59
2019-05-05T08:47:38.356Z,100918.68
2019-05-05T08:50:08.129Z,100920.15
2019-05-05T08:52:37.635Z,100923.70
2019-05-05T08:55:07.620Z,100909.48
2019-05-05T08:57:37.264Z,100925.62
2019-05-05T09:00:08.418Z,100916.08
2019-05-05T09:02:43.790Z,100919.45
2019-05-05T09:05:14.477Z,100928.56
2019-05-05T09:07:44.247Z,100931.06
2019-05-05T09:10:14.331Z,100925.15
2019-05-05T09:12:43.896Z,100924.74
2019-05-05T09:15:14.102Z,100918.59
2019-05-05T09:17:44.126Z,100919.17
2019-05-05T09:20:15.169Z,100926.34
2019-05-05T09:22:44.866Z,100920.84
2019-05-05T09:25:16.070Z,100923.43
2019-05-05T09:27:47.264Z,100915.41
2019-05-05T09:30:19.033Z,100920.20
2019-05-05T09:32:48.536Z,100914.77
2019-05-05T09:35:18.123Z,100917.06
2019-05-05T09:37:48.077Z,100913.07
2019-05-05T09:40:20.616Z,100916.58
2019-05-05T09:42:50.067Z,100922.77
2019-05-05T09:45:19.636Z,100929.36
2019-05-05T09:47:49.210Z,100933.42
2019-05-05T09:50:18.732Z,100924.19
2019-05-05T09:52:48.343Z,100921.61
2019-05-05T09:55:17.825Z,100921.30
2019-05-05T09:57:47.601Z,100926.61
2019-05-05T10:00:17.168Z,100929.11
2019-05-05T10:02:46.729Z,100927.08
2019-05-05T10:05:18.051Z,100932.91
2019-05-05T10:07:47.544Z,100926.03
2019-05-05T10:10:18.622Z,100926.21
2019-05-05T10:12:48.071Z,100928.37
2019-05-05T10:15:18.032Z,100932.47
2019-05-05T10:17:47.566Z,100935.13
2019-05-05T10:20:17.245Z,100939.41
2019-05-05T10:22:46.706Z,100939.94
2019-05-05T10:25:34.758Z,100944.20
2019-05-05T10:28:04.552Z,100934.78
2019-05-05T10:30:34.993Z,100931.58
2019-05-05T10:33:04.422Z,100933.27
2019-05-05T10:35:34.609Z,100925.52
2019-05-05T10:38:04.917Z,100943.80
2019-05-05T10:40:35.426Z,100940.12
2019-05-05T10:43:05.321Z,100940.47
2019-05-05T10:45:34.936Z,100940.67
2019-05-05T10:48:04.600Z,100934.77
2019-05-05T10:50:34.627Z,100934.75
2019-05-05T10:53:04.803Z,100925.78
2019-05-05T10:55:34.927Z,100926.41
2019-05-05T10:58:04.939Z,100930.63
2019-05-05T11:00:44.352Z,100928.61
2019-05-05T11:03:15.185Z,100928.52
2019-05-05T11:05:45.573Z,100936.56
2019-05-05T11:08:16.477Z,100945.27
2019-05-05T11:10:46.023Z,100942.09
2019-05-05T11:13:17.175Z,100947.41
2019-05-05T11:15:46.792Z,100946.03
2019-05-05T11:18:16.560Z,100951.81
2019-05-05T11:20:46.202Z,100952.39
2019-05-05T11:23:15.661Z,100954.25
2019-05-05T11:25:45.336Z,100955.27
2019-05-05T11:28:15.084Z,100948.78
2019-05-05T11:30:46.768Z,100956.34
2019-05-05T11:33:34.705Z,100958.15
2019-05-05T11:36:06.061Z,100951.12
2019-05-05T11:38:35.520Z,100959.77
2019-05-05T11:41:05.151Z,100962.48
2019-05-05T11:43:34.633Z,100952.84
2019-05-05T11:46:04.252Z,100952.49
2019-05-05T11:48:34.471Z,100947.17
2019-05-05T11:51:04.807Z,100946.34
2019-05-05T11:53:34.266Z,100947.23
2019-05-05T11:56:04.329Z,100946.70
2019-05-05T11:58:34.987Z,100956.44
2019-05-05T12:01:04.627Z,100947.94
2019-05-05T12:03:34.224Z,100962.46
2019-05-05T12:06:04.706Z,100957.09
2019-05-05T12:08:34.761Z,100961.94
2019-05-05T12:11:05.598Z,100953.00
2019-05-05T12:13:35.180Z,100952.37
2019-05-05T12:16:06.178Z,100950.12
2019-05-05T12:18:35.765Z,100950.02
2019-05-05T12:21:05.654Z,100951.71
2019-05-05T12:23:35.263Z,100948.63
2019-05-05T12:26:06.545Z,100947.38
2019-05-05T12:28:49.639Z,100946.48
2019-05-05T12:31:20.835Z,100950.48
2019-05-05T12:33:51.358Z,100945.98
2019-05-05T12:36:23.526Z,100948.03
2019-05-05T12:38:54.553Z,100939.34
2019-05-05T12:41:24.357Z,100937.35
2019-05-05T12:43:54.932Z,100930.02
2019-05-05T12:46:38.540Z,100937.59
2019-05-05T12:49:09.654Z,100932.70
2019-05-05T12:51:39.266Z,100936.62
2019-05-05T12:54:08.756Z,100942.28
2019-05-05T12:56:38.321Z,100933.75
2019-05-05T12:59:09.454Z,100937.52
2019-05-05T13:01:40.805Z,100935.71
2019-05-05T13:04:10.257Z,100929.07
2019-05-05T13:06:39.773Z,100931.72
2019-05-05T13:09:09.402Z,100930.81
2019-05-05T13:11:39.018Z,100934.38
2019-05-05T13:14:08.536Z,100934.45
2019-05-05T13:16:38.483Z,100926.23
2019-05-05T13:19:09.559Z,100923.75
2019-05-05T13:21:40.693Z,100931.38
2019-05-05T13:24:23.932Z,100919.84
2019-05-05T13:26:55.071Z,100921.98
2019-05-05T13:29:24.771Z,100918.86
2019-05-05T13:31:55.201Z,100924.52
2019-05-05T13:34:24.761Z,100927.09
2019-05-05T13:36:55.495Z,100927.38
2019-05-05T13:39:25.287Z,100927.55
2019-05-05T13:41:54.757Z,100920.41
2019-05-05T13:44:28.633Z,100924.65
2019-05-05T13:46:58.230Z,100920.19
2019-05-05T13:49:29.431Z,100918.91
2019-05-05T13:52:00.555Z,100920.91
2019-05-05T13:54:30.164Z,100921.42
2019-05-05T13:56:59.792Z,100914.27
2019-05-05T13:59:29.629Z,100912.51
2019-05-05T14:01:59.129Z,100904.22
2019-05-05T14:04:28.789Z,100902.94
2019-05-05T14:06:58.507Z,100910.07
2019-05-05T14:09:27.964Z,100909.20
2019-05-05T14:11:57.906Z,100906.53
2019-05-05T14:14:27.390Z,100908.70
2019-05-05T14:16:57.197Z,100901.63
2019-05-05T14:19:26.769Z,100890.55
2019-05-05T14:21:56.258Z,100893.64
2019-05-05T14:24:34.020Z,100884.34
2019-05-05T14:27:04.474Z,100881.23
2019-05-05T14:29:38.711Z,100885.23
2019-05-05T14:32:09.901Z,100891.44
2019-05-05T14:34:44.175Z,100877.67
2019-05-05T14:37:33.880Z,100887.87
2019-05-05T14:40:04.720Z,100886.55
2019-05-05T14:42:34.448Z,100887.42
2019-05-05T14:45:06.215Z,100891.43
2019-05-05T14:47:35.710Z,100887.91
2019-05-05T14:50:06.095Z,100885.66
2019-05-05T14:52:35.878Z,100885.23
2019-05-05T14:55:07.681Z,100885.67
2019-05-05T14:57:37.153Z,100877.25
2019-05-05T15:00:10.539Z,100876.80
2019-05-05T15:02:40.164Z,100867.92
2019-05-05T15:05:27.881Z,100866.59
2019-05-05T15:08:01.954Z,100863.47
2019-05-05T15:10:34.456Z,100869.70
2019-05-05T15:13:05.586Z,100862.60
2019-05-05T15:15:35.443Z,100865.27
2019-05-05T15:18:05.017Z,100863.93
2019-05-05T15:20:36.593Z,100860.37
2019-05-05T15:23:05.666Z,100862.58
2019-05-05T15:25:35.154Z,100862.55
2019-05-05T15:28:04.880Z,100867.45
2019-05-05T15:30:34.341Z,100870.56
2019-05-05T15:33:04.631Z,100876.80
2019-05-05T15:35:34.533Z,100873.67
2019-05-05T15:38:04.526Z,100873.63
2019-05-05T15:40:34.173Z,100870.87
2019-05-05T15:43:04.230Z,100869.55
2019-05-05T15:45:34.173Z,100872.64
2019-05-05T15:48:04.630Z,100876.95
2019-05-05T15:50:34.256Z,100882.52
2019-05-05T15:53:03.916Z,100885.53
2019-05-05T15:55:33.973Z,100889.81
2019-05-05T15:58:03.865Z,100886.66
2019-05-05T16:00:33.845Z,100887.87
2019-05-05T16:03:04.467Z,100889.94
2019-05-05T16:05:34.727Z,100889.37
2019-05-05T16:08:04.561Z,100894.19
2019-05-05T16:10:34.703Z,100899.06
2019-05-05T16:13:04.541Z,100898.17
2019-05-05T16:15:36.782Z,100888.02
2019-05-05T16:18:11.021Z,100889.35
2019-05-05T16:20:57.402Z,100887.20
2019-05-05T16:23:28.818Z,100896.16
2019-05-05T16:25:58.684Z,100887.72
2019-05-05T16:28:28.175Z,100887.29
2019-05-05T16:30:57.670Z,100895.67
2019-05-05T16:33:27.496Z,100894.77
2019-05-05T16:35:57.017Z,100899.48
2019-05-05T16:38:26.553Z,100907.83
2019-05-05T16:40:56.417Z,100895.83
2019-05-05T16:43:25.869Z,100896.30
2019-05-05T16:45:55.426Z,100901.60
2019-05-05T16:48:25.736Z,100900.62
2019-05-05T16:50:55.538Z,100903.23
2019-05-05T16:53:38.070Z,100894.81
2019-05-05T16:56:10.832Z,100899.41
2019-05-05T16:58:40.807Z,100903.95
2019-05-05T17:01:11.906Z,100906.91
2019-05-05T17:03:45.390Z,100906.52
2019-05-05T17:06:14.110Z,100900.56
2019-05-05T17:08:44.413Z,100897.94
2019-05-05T17:11:15.008Z,100903.80
2019-05-05T17:13:49.556Z,100892.25
2019-05-05T17:16:35.212Z,100902.02
2019-05-05T17:19:15.584Z,100897.80
2019-05-05T17:21:46.716Z,100896.27
2019-05-05T17:24:17.136Z,100897.16
2019-05-05T17:26:46.639Z,100891.66
2019-05-05T17:29:16.109Z,100899.77
2019-05-05T17:31:45.616Z,100903.81
2019-05-05T17:34:15.469Z,100908.36
2019-05-05T17:36:45.380Z,100913.75
2019-05-05T17:39:16.051Z,100916.81
2019-05-05T17:41:47.457Z,100918.37
2019-05-05T17:44:24.964Z,100916.92
2019-05-05T17:47:13.856Z,100914.95
2019-05-05T17:49:56.895Z,100914.83
2019-05-05T17:52:28.049Z,100912.77
2019-05-05T17:54:58.712Z,100917.49
2019-05-05T17:57:28.162Z,100920.44
2019-05-05T17:59:58.926Z,100918.98
2019-05-05T18:02:28.393Z,100922.81
2019-05-05T18:04:57.934Z,100931.09
2019-05-05T18:07:35.038Z,100916.77
2019-05-05T18:10:09.375Z,100926.03
2019-05-05T18:12:44.528Z,100925.48
2019-05-05T18:15:34.225Z,100926.30
2019-05-05T18:18:04.398Z,100922.73
2019-05-05T18:20:35.604Z,100923.17
2019-05-05T18:23:05.073Z,100928.84
2019-05-05T18:25:34.766Z,100928.73
2019-05-05T18:28:15.832Z,100929.54
2019-05-05T18:30:35.858Z,100935.63
2019-05-05T18:33:05.507Z,100932.94
2019-05-05T18:35:35.360Z,100936.77
2019-05-05T18:38:04.920Z,100938.92
2019-05-05T18:40:34.495Z,100936.62
2019-05-05T18:43:05.637Z,100943.57
2019-05-05T18:45:35.608Z,100937.28
2019-05-05T18:48:05.151Z,100939.88
2019-05-05T18:50:35.010Z,100951.63
2019-05-05T18:53:04.888Z,100948.38
2019-05-05T18:55:34.363Z,100953.13
2019-05-05T18:58:05.643Z,100958.72
2019-05-05T19:00:52.039Z,100958.97
2019-05-05T19:03:24.554Z,100962.76
2019-05-05T19:05:58.454Z,100964.80
2019-05-05T19:08:29.619Z,100963.34
2019-05-05T19:10:59.137Z,100971.05
2019-05-05T19:13:28.655Z,100969.99
2019-05-05T19:15:58.595Z,100975.60
2019-05-05T19:18:28.234Z,100978.98
2019-05-05T19:20:59.339Z,100976.19
2019-05-05T19:23:29.895Z,100990.55
2019-05-05T19:25:59.523Z,100989.51
2019-05-05T19:28:41.257Z,100993.86
2019-05-05T19:31:00.262Z,100998.23
2019-05-05T19:33:29.762Z,100995.49
2019-05-05T19:35:59.301Z,100999.38
2019-05-05T19:38:29.205Z,100995.29
2019-05-05T19:40:58.781Z,100999.15
2019-05-05T19:43:29.409Z,101009.14
2019-05-05T19:45:59.024Z,101008.59
2019-05-05T19:48:28.725Z,101005.50
2019-05-05T19:50:59.777Z,101004.16
2019-05-05T19:53:29.347Z,101012.89
2019-05-05T19:55:58.841Z,101008.87
2019-05-05T19:58:28.355Z,101009.22
2019-05-05T20:00:59.594Z,101011.78
2019-05-05T20:03:29.235Z,101012.61
2019-05-05T20:05:58.848Z,101013.90
2019-05-05T20:08:39.687Z,101014.35
2019-05-05T20:10:59.508Z,101014.88
2019-05-05T20:13:29.081Z,101020.59
2019-05-05T20:16:04.597Z,101016.57
2019-05-05T20:18:34.323Z,101016.02
2019-05-05T20:21:07.092Z,101017.64
2019-05-05T20:23:35.473Z,101017.53
2019-05-05T20:26:04.977Z,101016.03
2019-05-05T20:28:34.602Z,101018.94
2019-05-05T20:31:04.038Z,101028.05
2019-05-05T20:33:38.175Z,101019.55
2019-05-05T20:36:15.404Z,101025.60
2019-05-05T20:38:49.423Z,101026.32
2019-05-05T20:41:20.731Z,101022.59
2019-05-05T20:43:50.329Z,101022.81
2019-05-05T20:46:19.999Z,101024.43
2019-05-05T20:48:49.547Z,101021.27
2019-05-05T20:51:19.088Z,101027.28
2019-05-05T20:53:49.373Z,101027.53
2019-05-05T20:56:19.461Z,101031.29
2019-05-05T20:58:48.964Z,101033.76
2019-05-05T21:01:19.430Z,101034.55
2019-05-05T21:03:48.918Z,101032.28
2019-05-05T21:06:18.365Z,101028.20
2019-05-05T21:08:48.480Z,101026.36
2019-05-05T21:11:18.293Z,101020.56
2019-05-05T21:13:47.752Z,101032.33
2019-05-05T21:16:17.233Z,101028.29
2019-05-05T21:18:47.130Z,101033.92
2019-05-05T21:21:18.233Z,101031.58
2019-05-05T21:23:49.354Z,101032.73
2019-05-05T21:26:23.560Z,101035.60
2019-05-05T21:28:53.786Z,101030.04
2019-05-05T21:31:24.742Z,101035.50
2019-05-05T21:33:55.196Z,101032.20
2019-05-05T21:36:24.682Z,101039.83
2019-05-05T21:38:54.908Z,101041.42
2019-05-05T21:41:25.371Z,101044.78
2019-05-05T21:43:54.863Z,101036.27
2019-05-05T21:46:24.375Z,101041.84
2019-05-05T21:48:54.525Z,101040.48
2019-05-05T21:51:28.614Z,101044.42
2019-05-05T21:54:16.566Z,101045.69
2019-05-05T21:57:04.504Z,101044.69
2019-05-05T21:59:34.006Z,101052.99
2019-05-05T22:02:04.001Z,101056.43
2019-05-05T22:04:33.834Z,101050.09
2019-05-05T22:07:03.855Z,101046.55
2019-05-05T22:09:33.668Z,101057.73
2019-05-05T22:12:04.167Z,101051.84
2019-05-05T22:14:34.232Z,101047.35
2019-05-05T22:17:04.188Z,101059.91
2019-05-05T22:19:47.538Z,101051.46
2019-05-05T22:22:18.666Z,101048.65
2019-05-05T22:24:48.124Z,101048.41
2019-05-05T22:27:17.614Z,101046.19
2019-05-05T22:29:47.093Z,101047.86
2019-05-05T22:32:16.614Z,101047.77
2019-05-05T22:34:46.105Z,101047.27
2019-05-05T22:37:15.549Z,101045.41
2019-05-05T22:39:45.360Z,101046.13
2019-05-05T22:42:15.757Z,101046.97
2019-05-05T22:44:45.376Z,101039.34
2019-05-05T22:47:14.824Z,101043.65
2019-05-05T22:49:44.503Z,101042.28
2019-05-05T22:52:14.528Z,101039.11
2019-05-05T22:54:44.489Z,101038.65
2019-05-05T22:57:15.063Z,101043.41
2019-05-05T22:59:44.897Z,101040.68
2019-05-05T23:02:16.021Z,101041.89
2019-05-05T23:04:47.175Z,101047.45
2019-05-05T23:07:21.022Z,101042.91
2019-05-05T23:09:50.505Z,101046.30
2019-05-05T23:12:19.971Z,101042.36
2019-05-05T23:14:49.448Z,101046.66
2019-05-05T23:17:26.229Z,101042.61
2019-05-05T23:19:58.612Z,101040.39
2019-05-05T23:22:44.767Z,101037.77
2019-05-05T23:25:30.911Z,101037.81
2019-05-05T23:28:00.368Z,101037.25
2019-05-05T23:30:39.476Z,101040.34
2019-05-05T23:33:01.105Z,101042.15
2019-05-05T23:35:30.593Z,101037.71
2019-05-05T23:38:00.073Z,101038.20
2019-05-05T23:40:30.106Z,101040.44
2019-05-05T23:42:59.961Z,101039.22
2019-05-05T23:45:29.418Z,101036.09
2019-05-05T23:47:59.278Z,101034.73
2019-05-05T23:50:28.784Z,101038.67
2019-05-05T23:52:58.240Z,101038.77
2019-05-05T23:55:28.128Z,101036.64
2019-05-05T23:57:57.596Z,101028.58
